Download Dema Mody Aktualizacje Programy Tapety

Gry RPG gry i dema, download

Darmowe pobieranie, Gry RPG: pełne wersje gier i wersje demonstracyjne.

Download Gry RPG, 116 plików do pobrania, za darmo i legalnie na twój komputer PC lub laptop. Gry RPG pełne wersje gier i Gry RPG wersje demonstracyjne. Polecamy między innymi gry Purge, The Elder Scrolls II: Daggerfall, Mount & Blade: Warband, The Elder Scrolls: Arena, Wiedźmin, InSomnia: The Ark, Dink Smallwood, Ogniem i Mieczem: Dzikie Pola, Gothic, Diablo II. Zagraj za darmo w najlepsze gry.

Gry RPG pełna lista. Gry i dema do pobrania.

Klikając na nagłówki kolumn z plikami poniżej możesz posortować pliki alfabetycznie, według typu, rozmiaru pliku, daty publikacji, sumarycznej ilości pobrań i ilości pobrań w ostatnich 7 dniach.

Nazwa

Typ

Rozmiar

Data

Pobrań

7 dni

Serpent in the Staglands demo 274,5 MB 2015.05.29 2,9K 13
Izle - alpha demo 183,4 MB 2015.04.15 2,4K 7
Edge of Eternity demo 736,1 MB 2015.02.19 3,5K 15
InSomnia: The Ark demo 433,5 MB 2014.07.14 6,4K 93
Eschalon: Book III demo 493,2 MB 2014.02.20 1,5K 6
Blackguards demo 2146,1 MB 2014.03.06 4,2K 15
Drox Operative: Invasion of the Ancients - v.1.033 demo 136,3 MB 2013.11.26 1,6K 7
Final Fantasy XIV: A Realm Reborn - benchmark demo 2636,6 MB 2013.08.02 3,2K 14
Sword of the Stars: The Pit - ENG demo 326,4 MB 2013.03.18 1,1K 9
Drox Operative - v.1.000 demo 116 MB 2012.12.12 1K 2
Torchlight II - ENG demo 1338,5 MB 2012.09.21 4,7K 18
Dink Smallwood - Dink Smallwood HD gra 45,9 MB 2012.04.13 17,9K 92
Avernum: Escape from the Pit - ENG demo 153,4 MB 2012.04.13 1,8K 4
Age of Decadence - Beta ENG demo 256,1 MB 2012.03.23 2K 8
Dungeon Defenders - ENG demo 1248,6 MB 2011.10.21 3,2K 4
Chantelise: A Tale of Two Sisters - ENG demo 243,2 MB 2011.07.26 1,4K 3
Faery: Legends of Avalon - ENG demo 650,6 MB 2011.05.18 2K 7
Ogniem i Mieczem: Dzikie Pola - v.1.138 demo 835,2 MB 2011.05.04 22K 83
Starpoint Gemini - ENG demo 754,1 MB 2011.03.24 1,3K 8
Dragon Age II - PL demo 1971,3 MB 2011.02.22 13,6K 14
Divinity II: The Dragon Knight Saga - ENG demo 2149,4 MB 2010.12.25 7K 14
Wiedźmin - PL demo 2065,7 MB 2010.09.29 33,6K 99
Arcania: Gothic 4 - ENG demo 1749,9 MB 2010.09.23 32K 19
Mount & Blade: Warband - v.1.132 demo 585,5 MB 2010.10.05 63,8K 175
Recettear: An Item Shop's Tale - ENG demo 76,2 MB 2010.07.22 1,9K 1
Mass Effect 2 - ENG demo 1916,7 MB 2010.06.15 5,4K 33
Divinity II: Ego Draconis - ENG demo 1811,8 MB 2009.12.22 5,8K 7
Greed: Black Border - ENG demo 458,8 MB 2009.12.11 2,2K 5
Torchlight - v.1.15 demo 410,9 MB 2011.03.21 7,8K 16
Risen - ENG demo 1110 MB 2009.10.02 19,2K 20
The Elder Scrolls II: Daggerfall gra 148,7 MB 2009.07.10 18,4K 294
Overlord II - ENG demo 964,4 MB 2009.06.11 9,4K 8
Aztaka - ENG demo 893,5 MB 2009.06.08 2,3K 6
The Last Remnant demo 1034 MB 2009.02.26 9,8K 17
Drakensang: The Dark Eye - PL demo 666,8 MB 2008.12.11 12,4K 4
Mount & Blade - v.1.011 demo 378,3 MB 2008.11.04 29,2K 30
Penny Arcade Adventures: On the Rain-Slick Precipice of Darkness - episode #2 demo 309,9 MB 2008.10.30 2,6K 5
Sacred 2: Fallen Angel - ENG demo 1748,8 MB 2008.09.30 14,2K 8
Legend: Hand of God - ENG demo 1789,4 MB 2008.07.30 5,1K 7
Space Siege demo 935 MB 2008.07.29 3K 4
Penny Arcade Adventures: On the Rain-Slick Precipice of Darkness - episode #1 demo 208,8 MB 2008.05.21 2K 4
Avernum 5 demo 27,7 MB 2008.02.19 1,5K 3
Silverfall: Earth Awakening - GER demo 1302,5 MB 2008.02.08 1,8K 1
Hard to Be a God - ENG demo 406,2 MB 2008.01.08 4,4K 7
Avencast: Rise of the Mage demo 309 MB 2007.10.12 3K 2
Frater - ENG demo 425,8 MB 2007.10.08 8,3K 13
Loki - #2 – egiptian mage demo 1252,8 MB 2007.09.14 2,7K 5
Dawnspire - v.1.34 demo 109,5 MB 2007.09.07 1,3K 1
Two Worlds - ENG/PL demo 865,8 MB 2007.08.22 6,5K 25
Loki - #1 – nordic warrior demo 1007,8 MB 2007.08.10 3,1K 5
Gods: Kraina Nieskończoności - special edition demo 412,8 MB 2007.07.23 3,7K 10
Overlord - v.1.1 demo 1089,5 MB 2007.07.05 3K 5
Shady O'Grady's Rising Star - v.1.08 demo 91,7 MB 2007.06.05 1,3K 2
Call for Heroes: Pompolic Wars - The Amazon Girl demo 226,7 MB 2007.05.28 1,3K 10